createdAt,value
2022-12-18T00:01:29.603Z,103143.81
2022-12-18T00:03:57.173Z,103153.03
2022-12-18T00:06:26.320Z,103172.56
2022-12-18T00:08:55.746Z,103159.22
2022-12-18T00:11:24.836Z,103104.88
2022-12-18T00:13:52.056Z,103153.47
2022-12-18T00:16:21.653Z,103156.47
2022-12-18T00:18:49.343Z,103154.94
2022-12-18T00:21:16.476Z,103136.13
2022-12-18T00:23:44.817Z,103146.88
2022-12-18T00:26:17.776Z,103148.00
2022-12-18T00:28:45.448Z,103103.16
2022-12-18T00:31:14.815Z,103146.66
2022-12-18T00:33:42.290Z,103078.19
2022-12-18T00:36:12.688Z,103145.94
2022-12-18T00:38:39.715Z,103151.34
2022-12-18T00:41:08.608Z,103130.31
2022-12-18T00:43:35.610Z,103144.66
2022-12-18T00:46:02.580Z,103115.19
2022-12-18T00:48:29.586Z,103144.63
2022-12-18T00:50:56.168Z,103138.78
2022-12-18T00:53:22.835Z,103124.91
2022-12-18T00:55:49.316Z,103136.47
2022-12-18T00:58:17.458Z,103130.03
2022-12-18T01:00:44.402Z,103153.31
2022-12-18T01:03:14.355Z,103158.56
2022-12-18T01:05:42.566Z,103170.44
2022-12-18T01:08:09.020Z,103166.03
2022-12-18T01:10:35.492Z,103156.00
2022-12-18T01:13:02.030Z,103159.16
2022-12-18T01:15:28.497Z,103141.50
2022-12-18T01:17:54.973Z,103139.00
2022-12-18T01:20:21.740Z,103091.72
2022-12-18T01:22:48.339Z,103142.75
2022-12-18T01:25:14.825Z,103086.22
2022-12-18T01:27:41.294Z,103150.66
2022-12-18T01:30:08.488Z,103161.56
2022-12-18T01:32:35.007Z,103157.47
2022-12-18T01:35:01.532Z,103165.13
2022-12-18T01:37:28.044Z,103169.34
2022-12-18T01:39:54.547Z,103145.84
2022-12-18T01:42:21.921Z,103164.91
2022-12-18T01:44:54.323Z,103153.16
2022-12-18T01:47:56.396Z,103150.81
2022-12-18T01:50:46.389Z,103182.91
2022-12-18T01:53:20.065Z,103130.25
2022-12-18T01:55:51.309Z,103136.28
2022-12-18T01:58:18.948Z,103063.03
2022-12-18T02:00:46.139Z,103209.41
2022-12-18T02:03:13.139Z,103197.56
2022-12-18T02:06:22.943Z,103211.97
2022-12-18T02:08:54.286Z,103206.97
2022-12-18T02:11:33.833Z,103216.97
2022-12-18T02:14:29.205Z,103223.03
2022-12-18T02:17:11.416Z,103225.47
2022-12-18T02:20:02.496Z,103223.75
2022-12-18T02:23:06.624Z,103234.72
2022-12-18T02:25:56.319Z,103241.59
2022-12-18T02:28:29.417Z,103236.44
2022-12-18T02:31:02.067Z,103242.34
2022-12-18T02:33:31.605Z,103244.16
2022-12-18T02:36:00.472Z,103263.59
2022-12-18T02:38:31.821Z,103259.41
2022-12-18T02:40:59.641Z,103254.66
2022-12-18T02:43:26.263Z,103261.44
2022-12-18T02:45:58.872Z,103258.22
2022-12-18T02:48:32.954Z,103259.94
2022-12-18T02:51:13.781Z,103265.31
2022-12-18T02:53:54.458Z,103252.22
2022-12-18T02:56:27.367Z,103282.34
2022-12-18T02:59:09.055Z,103277.88
2022-12-18T03:01:44.128Z,103273.72
2022-12-18T03:04:21.480Z,103291.41
2022-12-18T03:06:54.320Z,103292.47
2022-12-18T03:09:27.715Z,103296.34
2022-12-18T03:12:01.166Z,103307.44
2022-12-18T03:14:32.128Z,103305.09
2022-12-18T03:17:08.640Z,103320.16
2022-12-18T03:19:38.965Z,103316.91
2022-12-18T03:22:08.639Z,103343.31
2022-12-18T03:24:38.032Z,103332.41
2022-12-18T03:27:11.192Z,103356.41
2022-12-18T03:29:52.979Z,103310.31
2022-12-18T03:32:29.937Z,103316.94
2022-12-18T03:35:02.691Z,103348.66
2022-12-18T03:37:29.301Z,103353.75
2022-12-18T03:39:56.006Z,103366.41
2022-12-18T03:42:46.971Z,103380.59
2022-12-18T03:45:37.444Z,103379.13
2022-12-18T03:48:29.945Z,103393.75
2022-12-18T03:51:29.367Z,103420.00
2022-12-18T03:54:04.156Z,103438.81
2022-12-18T03:56:34.531Z,103419.28
2022-12-18T03:59:03.780Z,103441.34
2022-12-18T04:01:36.427Z,103455.81
2022-12-18T04:04:05.387Z,103449.91
2022-12-18T04:06:33.531Z,103450.75
2022-12-18T04:09:00.495Z,103454.13
2022-12-18T04:11:27.124Z,103462.75
2022-12-18T04:13:57.802Z,103479.63
2022-12-18T04:16:25.694Z,103481.44
2022-12-18T04:18:52.311Z,103481.41
2022-12-18T04:21:18.820Z,103492.31
2022-12-18T04:23:45.273Z,103481.44
2022-12-18T04:26:11.839Z,103497.50
2022-12-18T04:28:38.346Z,103500.66
2022-12-18T04:31:06.384Z,103508.50
2022-12-18T04:33:33.381Z,103533.06
2022-12-18T04:35:59.919Z,103527.88
2022-12-18T04:38:26.542Z,103539.16
2022-12-18T04:40:53.096Z,103540.00
2022-12-18T04:43:19.758Z,103523.94
2022-12-18T04:45:46.442Z,103540.06
2022-12-18T04:48:13.109Z,103542.66
2022-12-18T04:50:40.091Z,103536.72
2022-12-18T04:53:07.715Z,103540.13
2022-12-18T04:55:35.113Z,103550.16
2022-12-18T04:58:01.776Z,103553.53
2022-12-18T05:00:28.256Z,103564.63
2022-12-18T05:02:54.882Z,103556.06
2022-12-18T05:05:21.485Z,103594.25
2022-12-18T05:07:47.971Z,103591.53
2022-12-18T05:10:14.681Z,103606.69
2022-12-18T05:12:41.221Z,103602.59
2022-12-18T05:15:08.292Z,103628.84
2022-12-18T05:17:34.927Z,103628.38
2022-12-18T05:20:01.461Z,103643.53
2022-12-18T05:22:27.994Z,103635.09
2022-12-18T05:24:54.624Z,103628.94
2022-12-18T05:27:21.168Z,103637.53
2022-12-18T05:29:47.964Z,103642.66
2022-12-18T05:32:14.493Z,103651.00
2022-12-18T05:34:40.988Z,103649.31
2022-12-18T05:37:07.462Z,103650.34
2022-12-18T05:39:34.606Z,103663.91
2022-12-18T05:42:01.079Z,103637.06
2022-12-18T05:44:27.787Z,103657.88
2022-12-18T05:46:55.147Z,103671.47
2022-12-18T05:49:21.671Z,103679.09
2022-12-18T05:51:48.201Z,103685.06
2022-12-18T05:54:14.698Z,103692.59
2022-12-18T05:56:47.005Z,103701.78
2022-12-18T05:59:15.195Z,103707.19
2022-12-18T06:01:41.831Z,103713.00
2022-12-18T06:04:08.659Z,103722.50
2022-12-18T06:06:37.969Z,103714.13
2022-12-18T06:09:06.162Z,103682.16
2022-12-18T06:11:33.223Z,103689.66
2022-12-18T06:14:00.701Z,103671.78
2022-12-18T06:16:28.825Z,103692.09
2022-12-18T06:19:00.118Z,103693.13
2022-12-18T06:21:28.107Z,103709.06
2022-12-18T06:23:54.696Z,103700.41
2022-12-18T06:26:27.660Z,103706.56
2022-12-18T06:28:54.741Z,103706.66
2022-12-18T06:31:21.250Z,103708.25
2022-12-18T06:33:47.820Z,103706.56
2022-12-18T06:36:15.027Z,103703.13
2022-12-18T06:38:44.104Z,103709.88
2022-12-18T06:41:13.291Z,103709.13
2022-12-18T06:43:40.266Z,103714.19
2022-12-18T06:46:07.813Z,103705.63
2022-12-18T06:48:34.699Z,103695.69
2022-12-18T06:51:01.621Z,103690.56
2022-12-18T06:53:28.653Z,103694.00
2022-12-18T06:56:13.106Z,103676.25
2022-12-18T06:58:40.306Z,103685.50
2022-12-18T07:01:09.320Z,103682.22
2022-12-18T07:03:36.270Z,103674.59
2022-12-18T07:06:03.656Z,103671.25
2022-12-18T07:08:31.151Z,103654.22
2022-12-18T07:10:57.857Z,103646.69
2022-12-18T07:13:24.502Z,103635.69
2022-12-18T07:15:50.959Z,103638.34
2022-12-18T07:18:18.534Z,103627.25
2022-12-18T07:20:45.399Z,103617.94
2022-12-18T07:23:12.877Z,103609.44
2022-12-18T07:25:41.640Z,103597.53
2022-12-18T07:28:11.699Z,103594.19
2022-12-18T07:30:42.386Z,103596.56
2022-12-18T07:33:08.855Z,103593.31
2022-12-18T07:35:35.453Z,103607.69
2022-12-18T07:38:01.990Z,103590.97
2022-12-18T07:40:28.725Z,103607.66
2022-12-18T07:42:55.425Z,103607.78
2022-12-18T07:45:21.915Z,103597.78
2022-12-18T07:47:48.545Z,103590.97
2022-12-18T07:50:15.103Z,103581.66
2022-12-18T07:52:41.547Z,103579.78
2022-12-18T07:55:10.939Z,103575.63
2022-12-18T07:57:57.619Z,103568.81
2022-12-18T08:00:24.045Z,103560.38
2022-12-18T08:02:50.621Z,103565.53
2022-12-18T08:05:17.424Z,103573.81
2022-12-18T08:07:43.917Z,103560.28
2022-12-18T08:10:10.698Z,103560.28
2022-12-18T08:12:37.327Z,103556.78
2022-12-18T08:15:04.229Z,103546.72
2022-12-18T08:17:31.582Z,103529.75
2022-12-18T08:19:58.152Z,103521.22
2022-12-18T08:22:25.001Z,103505.06
2022-12-18T08:24:51.556Z,103505.91
2022-12-18T08:27:29.513Z,103485.50
2022-12-18T08:29:57.035Z,103501.59
2022-12-18T08:32:24.459Z,103541.28
2022-12-18T08:34:51.355Z,103548.72
2022-12-18T08:37:17.915Z,103545.47
2022-12-18T08:39:44.490Z,103543.66
2022-12-18T08:42:11.236Z,103530.91
2022-12-18T08:44:38.144Z,103516.22
2022-12-18T08:47:08.246Z,103526.06
2022-12-18T08:49:35.946Z,103541.56
2022-12-18T08:52:02.829Z,103535.50
2022-12-18T08:54:29.831Z,103545.47
2022-12-18T08:56:56.417Z,103545.50
2022-12-18T08:59:22.882Z,103562.16
2022-12-18T09:01:50.227Z,103563.31
2022-12-18T09:04:17.100Z,103575.78
2022-12-18T09:06:43.719Z,103577.06
2022-12-18T09:09:10.990Z,103581.84
2022-12-18T09:11:38.140Z,103578.69
2022-12-18T09:14:04.962Z,103610.50
2022-12-18T09:16:33.032Z,103619.94
2022-12-18T09:19:00.692Z,103621.91
2022-12-18T09:21:30.308Z,103620.66
2022-12-18T09:23:57.311Z,103619.63
2022-12-18T09:26:25.041Z,103606.59
2022-12-18T09:28:51.640Z,103602.31
2022-12-18T09:31:21.011Z,103621.47
2022-12-18T09:33:47.678Z,103623.28
2022-12-18T09:36:16.691Z,103623.34
2022-12-18T09:38:43.688Z,103638.69
2022-12-18T09:41:52.904Z,103651.34
2022-12-18T09:44:29.707Z,103640.91
2022-12-18T09:47:05.647Z,103659.06
2022-12-18T09:49:40.561Z,103670.31
2022-12-18T09:52:22.640Z,103656.34
2022-12-18T09:55:01.265Z,103663.97
2022-12-18T09:57:28.007Z,103657.78
2022-12-18T10:00:00.020Z,103661.56
2022-12-18T10:02:27.830Z,103685.19
2022-12-18T10:05:05.493Z,103682.50
2022-12-18T10:07:50.798Z,103664.56
2022-12-18T10:10:23.129Z,103654.41
2022-12-18T10:13:13.870Z,103645.66
2022-12-18T10:16:01.393Z,103636.03
2022-12-18T10:18:37.013Z,103629.94
2022-12-18T10:21:30.724Z,103610.47
2022-12-18T10:24:15.516Z,103607.63
2022-12-18T10:26:42.787Z,103593.75
2022-12-18T10:29:15.102Z,103595.38
2022-12-18T10:31:42.082Z,103588.63
2022-12-18T10:34:12.727Z,103586.56
2022-12-18T10:36:39.641Z,103599.03
2022-12-18T10:39:24.473Z,103588.38
2022-12-18T10:41:51.114Z,103560.69
2022-12-18T10:44:23.720Z,103581.13
2022-12-18T10:46:55.056Z,103579.53
2022-12-18T10:49:31.126Z,103565.66
2022-12-18T10:52:23.940Z,103585.00
2022-12-18T10:54:54.412Z,103593.41
2022-12-18T10:57:34.631Z,103592.31
2022-12-18T11:00:20.224Z,103594.97
2022-12-18T11:02:47.051Z,103599.75
2022-12-18T11:05:46.176Z,103581.81
2022-12-18T11:08:22.114Z,103599.66
2022-12-18T11:10:48.752Z,103590.31
2022-12-18T11:13:24.283Z,103608.69
2022-12-18T11:15:51.741Z,103597.09
2022-12-18T11:18:23.333Z,103588.69
2022-12-18T11:20:59.734Z,103581.53
2022-12-18T11:23:28.167Z,103582.81
2022-12-18T11:26:00.423Z,103595.09
2022-12-18T11:28:43.311Z,103591.38
2022-12-18T11:31:16.138Z,103591.41
2022-12-18T11:34:19.650Z,103557.19
2022-12-18T11:36:42.381Z,103558.03
2022-12-18T11:39:21.243Z,103520.03
2022-12-18T11:41:58.755Z,103554.22
2022-12-18T11:44:39.357Z,103548.72
2022-12-18T11:47:17.993Z,103552.97
2022-12-18T11:49:44.681Z,103557.03
2022-12-18T11:52:19.730Z,103546.19
2022-12-18T11:54:46.327Z,103536.09
2022-12-18T11:57:36.552Z,103530.94
2022-12-18T12:00:03.016Z,103520.16
2022-12-18T12:02:40.265Z,103509.53
2022-12-18T12:05:46.428Z,103513.56
2022-12-18T12:08:12.944Z,103512.88
2022-12-18T12:10:45.538Z,103500.28
2022-12-18T12:13:33.687Z,103498.75
2022-12-18T12:16:15.216Z,103463.88
2022-12-18T12:18:56.652Z,103479.81
2022-12-18T12:21:33.601Z,103468.13
2022-12-18T12:24:06.175Z,103457.03
2022-12-18T12:26:47.997Z,103463.75
2022-12-18T12:29:26.826Z,103458.16
2022-12-18T12:32:29.603Z,103455.97
2022-12-18T12:35:09.383Z,103455.97
2022-12-18T12:37:53.500Z,103462.13
2022-12-18T12:40:50.314Z,103448.50
2022-12-18T12:43:28.025Z,103441.69
2022-12-18T12:45:58.537Z,103441.56
2022-12-18T12:48:34.419Z,103439.47
2022-12-18T12:51:11.410Z,103431.63
2022-12-18T12:53:40.419Z,103427.72
2022-12-18T12:56:10.920Z,103423.06
2022-12-18T12:58:56.750Z,103421.16
2022-12-18T13:01:32.734Z,103386.06
2022-12-18T13:04:43.893Z,103399.19
2022-12-18T13:07:47.879Z,103396.31
2022-12-18T13:10:17.816Z,103381.34
2022-12-18T13:13:10.420Z,103389.47
2022-12-18T13:15:46.263Z,103363.13
2022-12-18T13:18:15.500Z,103384.34
2022-12-18T13:21:03.786Z,103377.06
2022-12-18T13:23:40.750Z,103368.56
2022-12-18T13:26:07.647Z,103365.63
2022-12-18T13:28:34.597Z,103367.84
2022-12-18T13:31:02.748Z,103362.00
2022-12-18T13:33:29.605Z,103359.41
2022-12-18T13:36:14.738Z,103338.97
2022-12-18T13:38:43.112Z,103368.56
2022-12-18T13:41:26.259Z,103363.66
2022-12-18T13:43:55.072Z,103360.06
2022-12-18T13:46:24.514Z,103357.56
2022-12-18T13:48:55.882Z,103335.50
2022-12-18T13:51:23.947Z,103328.28
2022-12-18T13:53:52.028Z,103329.75
2022-12-18T13:56:22.738Z,103326.59
2022-12-18T13:59:11.711Z,103311.69
2022-12-18T14:01:54.132Z,103325.50
2022-12-18T14:04:32.160Z,103316.53
2022-12-18T14:07:06.742Z,103325.66
2022-12-18T14:09:41.829Z,103317.97
2022-12-18T14:12:17.980Z,103326.13
2022-12-18T14:14:47.839Z,103326.19
2022-12-18T14:17:16.975Z,103334.31
2022-12-18T14:19:47.126Z,103322.47
2022-12-18T14:22:26.583Z,103293.44
2022-12-18T14:25:20.331Z,103300.78
2022-12-18T14:28:06.957Z,103297.66
2022-12-18T14:30:37.703Z,103281.78
2022-12-18T14:33:14.852Z,103288.97
2022-12-18T14:36:02.396Z,103284.00
2022-12-18T14:38:42.005Z,103290.06
2022-12-18T14:41:17.239Z,103281.47
2022-12-18T14:43:46.641Z,103253.28
2022-12-18T14:46:30.027Z,103271.44
2022-12-18T14:48:58.093Z,103268.09
2022-12-18T14:51:31.264Z,103256.50
2022-12-18T14:54:00.896Z,103258.97
2022-12-18T14:56:33.487Z,103251.84
2022-12-18T14:59:02.570Z,103237.41
2022-12-18T15:01:33.410Z,103232.56
2022-12-18T15:04:03.077Z,103238.47
2022-12-18T15:06:31.515Z,103233.00
2022-12-18T15:08:59.856Z,103227.03
2022-12-18T15:11:32.991Z,103221.38
2022-12-18T15:13:59.594Z,103227.94
2022-12-18T15:16:26.371Z,103223.06
2022-12-18T15:18:54.266Z,103214.31
2022-12-18T15:21:22.015Z,103222.81
2022-12-18T15:23:51.713Z,103216.69
2022-12-18T15:26:21.552Z,103212.53
2022-12-18T15:28:56.321Z,103210.75
2022-12-18T15:31:30.231Z,103209.81
2022-12-18T15:33:56.824Z,103207.22
2022-12-18T15:36:26.182Z,103193.69
2022-12-18T15:38:55.167Z,103178.53
2022-12-18T15:41:25.649Z,103200.88
2022-12-18T15:43:53.775Z,103202.81
2022-12-18T15:46:21.836Z,103173.66
2022-12-18T15:49:01.698Z,103211.25
2022-12-18T15:51:30.759Z,103211.94
2022-12-18T15:53:59.679Z,103204.16
2022-12-18T15:56:26.629Z,103200.78
2022-12-18T15:58:53.161Z,103186.56
2022-12-18T16:01:19.842Z,103183.03
2022-12-18T16:03:46.644Z,103198.84
2022-12-18T16:06:13.736Z,103202.13
2022-12-18T16:08:40.361Z,103200.19
2022-12-18T16:11:21.764Z,103199.38
2022-12-18T16:13:48.449Z,103199.25
2022-12-18T16:16:15.260Z,103181.75
2022-12-18T16:18:42.084Z,103188.16
2022-12-18T16:21:09.621Z,103182.09
2022-12-18T16:23:36.237Z,103144.38
2022-12-18T16:26:02.834Z,103172.03
2022-12-18T16:28:29.365Z,103181.75
2022-12-18T16:30:55.874Z,103175.97
2022-12-18T16:33:22.435Z,103183.38
2022-12-18T16:35:54.844Z,103167.38
2022-12-18T16:38:21.385Z,103172.13
2022-12-18T16:40:48.209Z,103177.88
2022-12-18T16:43:16.526Z,103168.31
2022-12-18T16:45:43.865Z,103181.84
2022-12-18T16:48:10.400Z,103176.00
2022-12-18T16:50:37.121Z,103181.69
2022-12-18T16:53:03.826Z,103191.63
2022-12-18T16:55:30.707Z,103186.50
2022-12-18T16:57:57.761Z,103193.09
2022-12-18T17:00:24.381Z,103192.13
2022-12-18T17:02:51.320Z,103199.53
2022-12-18T17:05:17.992Z,103186.34
2022-12-18T17:07:44.596Z,103216.25
2022-12-18T17:10:11.213Z,103223.88
2022-12-18T17:12:37.700Z,103207.69
2022-12-18T17:15:04.613Z,103276.47
2022-12-18T17:17:31.153Z,103277.38
2022-12-18T17:19:57.755Z,103260.47
2022-12-18T17:22:24.260Z,103276.34
2022-12-18T17:24:50.860Z,103252.72
2022-12-18T17:27:17.408Z,103241.78
2022-12-18T17:29:47.904Z,103243.47
2022-12-18T17:32:15.978Z,103231.69
2022-12-18T17:34:44.887Z,103223.56
2022-12-18T17:37:11.416Z,103234.09
2022-12-18T17:39:38.326Z,103222.09
2022-12-18T17:42:05.226Z,103224.00
2022-12-18T17:44:32.528Z,103239.78
2022-12-18T17:46:59.189Z,103233.00
2022-12-18T17:49:25.934Z,103240.34
2022-12-18T17:51:52.549Z,103242.84
2022-12-18T17:54:19.754Z,103224.38
2022-12-18T17:56:46.357Z,103225.66
2022-12-18T17:59:13.146Z,103215.09
2022-12-18T18:01:44.397Z,103225.47
2022-12-18T18:04:13.292Z,103195.16
2022-12-18T18:06:40.127Z,103186.69
2022-12-18T18:09:10.015Z,103194.97
2022-12-18T18:11:45.914Z,103199.66
2022-12-18T18:14:19.165Z,103185.09
2022-12-18T18:16:48.202Z,103173.19
2022-12-18T18:19:17.622Z,103170.97
2022-12-18T18:21:47.715Z,103177.34
2022-12-18T18:24:17.980Z,103137.97
2022-12-18T18:26:45.021Z,103154.47
2022-12-18T18:29:15.935Z,103147.28
2022-12-18T18:31:43.058Z,103151.75
2022-12-18T18:34:18.727Z,103101.94
2022-12-18T18:36:45.406Z,103119.59
2022-12-18T18:39:12.970Z,103132.56
2022-12-18T18:41:39.548Z,103134.72
2022-12-18T18:44:06.622Z,103123.00
2022-12-18T18:46:33.449Z,103105.88
2022-12-18T18:48:59.897Z,103104.28
2022-12-18T18:51:31.445Z,103085.44
2022-12-18T18:54:01.554Z,103083.69
2022-12-18T18:56:56.183Z,103080.31
2022-12-18T18:59:15.038Z,103065.06
2022-12-18T19:01:41.664Z,103054.88
2022-12-18T19:04:08.877Z,103054.38
2022-12-18T19:06:35.517Z,103048.56
2022-12-18T19:09:03.899Z,103040.94
2022-12-18T19:11:35.927Z,103040.69
2022-12-18T19:14:06.116Z,103030.53
2022-12-18T19:16:33.496Z,103004.72
2022-12-18T19:19:01.898Z,102994.31
2022-12-18T19:21:29.358Z,102976.22
2022-12-18T19:23:59.317Z,102956.91
2022-12-18T19:26:28.214Z,102950.28
2022-12-18T19:29:04.732Z,102949.22
2022-12-18T19:31:35.653Z,102920.78
2022-12-18T19:34:04.233Z,102883.81
2022-12-18T19:36:35.092Z,102891.81
2022-12-18T19:39:02.093Z,102884.94
2022-12-18T19:41:32.964Z,102865.34
2022-12-18T19:44:02.252Z,102849.19
2022-12-18T19:46:35.574Z,102842.00
2022-12-18T19:49:02.711Z,102827.44
2022-12-18T19:51:31.364Z,102798.34
2022-12-18T19:54:01.214Z,102790.03
2022-12-18T19:56:31.572Z,102761.69
2022-12-18T19:58:58.489Z,102740.09
2022-12-18T20:01:26.298Z,102717.81
2022-12-18T20:03:54.462Z,102716.06
2022-12-18T20:06:46.706Z,102697.97
2022-12-18T20:09:13.491Z,102685.31
2022-12-18T20:11:41.952Z,102658.91
2022-12-18T20:14:10.106Z,102651.06
2022-12-18T20:16:36.729Z,102619.13
2022-12-18T20:19:03.768Z,102600.00
2022-12-18T20:21:30.469Z,102604.78
2022-12-18T20:23:57.017Z,102588.75
2022-12-18T20:26:23.913Z,102580.06
2022-12-18T20:28:50.468Z,102567.38
2022-12-18T20:31:17.242Z,102555.81
2022-12-18T20:33:47.632Z,102532.31
2022-12-18T20:36:21.134Z,102524.88
2022-12-18T20:38:49.964Z,102539.22
2022-12-18T20:41:19.174Z,102498.25
2022-12-18T20:43:46.200Z,102501.81
2022-12-18T20:46:14.961Z,102496.44
2022-12-18T20:48:42.349Z,102489.84
2022-12-18T20:51:17.387Z,102491.88
2022-12-18T20:53:45.611Z,102487.47
2022-12-18T20:56:20.850Z,102489.75
2022-12-18T20:58:55.138Z,102469.34
2022-12-18T21:01:23.082Z,102447.50
2022-12-18T21:03:50.723Z,102449.53
2022-12-18T21:06:20.183Z,102437.16
2022-12-18T21:08:47.302Z,102417.66
2022-12-18T21:11:19.976Z,102414.88
2022-12-18T21:13:46.506Z,102407.75
2022-12-18T21:16:13.067Z,102376.75
2022-12-18T21:18:39.594Z,102388.78
2022-12-18T21:21:06.173Z,102380.34
2022-12-18T21:23:32.800Z,102376.56
2022-12-18T21:26:24.461Z,102368.16
2022-12-18T21:28:55.835Z,102365.94
2022-12-18T21:31:25.291Z,102346.03
2022-12-18T21:33:54.659Z,102345.28
2022-12-18T21:36:28.157Z,102335.66
2022-12-18T21:38:55.639Z,102330.34
2022-12-18T21:41:23.329Z,102308.44
2022-12-18T21:43:50.237Z,102298.81
2022-12-18T21:46:16.786Z,102299.03
2022-12-18T21:48:43.461Z,102294.75
2022-12-18T21:51:10.379Z,102280.06
2022-12-18T21:53:37.032Z,102273.25
2022-12-18T21:56:03.682Z,102256.00
2022-12-18T21:58:30.586Z,102255.84
2022-12-18T22:00:57.115Z,102252.97
2022-12-18T22:03:24.253Z,102248.44
2022-12-18T22:05:53.975Z,102232.41
2022-12-18T22:08:35.765Z,102235.53
2022-12-18T22:11:06.395Z,102230.56
2022-12-18T22:13:32.986Z,102223.69
2022-12-18T22:15:59.477Z,102222.28
2022-12-18T22:18:25.992Z,102190.41
2022-12-18T22:21:04.997Z,102205.94
2022-12-18T22:23:32.005Z,102211.69
2022-12-18T22:25:58.530Z,102203.78
2022-12-18T22:28:25.098Z,102191.03
2022-12-18T22:30:52.699Z,102184.16
2022-12-18T22:33:26.001Z,102178.59
2022-12-18T22:35:52.484Z,102150.75
2022-12-18T22:38:18.979Z,102169.75
2022-12-18T22:40:45.749Z,102149.22
2022-12-18T22:43:12.500Z,102154.97
2022-12-18T22:45:38.986Z,102149.81
2022-12-18T22:48:05.947Z,102120.22
2022-12-18T22:50:35.332Z,102125.56
2022-12-18T22:53:01.863Z,102113.03
2022-12-18T22:55:28.350Z,102127.19
2022-12-18T22:57:54.898Z,102112.91
2022-12-18T23:00:24.588Z,102104.38
2022-12-18T23:02:59.473Z,102112.59
2022-12-18T23:05:27.651Z,102127.47
2022-12-18T23:07:54.177Z,102099.84
2022-12-18T23:10:20.623Z,102108.03
2022-12-18T23:12:47.270Z,102101.56
2022-12-18T23:15:13.996Z,102117.28
2022-12-18T23:17:42.685Z,102113.66
2022-12-18T23:20:09.764Z,102080.06
2022-12-18T23:22:36.394Z,102075.03
2022-12-18T23:25:02.981Z,102101.44
2022-12-18T23:27:29.544Z,102085.94
2022-12-18T23:29:56.014Z,102057.44
2022-12-18T23:32:25.062Z,102058.16
2022-12-18T23:34:51.544Z,102090.44
2022-12-18T23:37:35.302Z,102069.16
2022-12-18T23:40:05.154Z,102065.44
2022-12-18T23:42:31.705Z,102037.69
2022-12-18T23:44:58.259Z,102057.97
2022-12-18T23:47:26.245Z,102046.84
2022-12-18T23:49:52.851Z,102057.03
2022-12-18T23:52:19.437Z,102052.69
2022-12-18T23:54:46.103Z,102030.69
2022-12-18T23:57:12.678Z,102034.06
2022-12-18T23:59:39.165Z,102062.88
